Time;durP1;ratioP1;P1;durP2;ratioP2;P2;SDS_P1;SDS_P2;PMS_P1;PMS_P2;Temp;Humidity;BMP_temperature;BMP_pressure;BME280_temperature;BME280_humidity;BME280_pressure;Samples;Min_cycle;Max_cycle;Signal;HPM_P1;HPM_P2
2022/05/27 00:01:59;;;;;;;;;;;16.90;58.40;;;;;;5077779;28;19994;-61
2022/05/27 00:04:25;;;;;;;;;;;16.90;58.30;;;;;;5091139;28;19909;-61
2022/05/27 00:06:50;;;;;;;;;;;17.00;58.40;;;;;;5076935;28;19940;-61
2022/05/27 00:09:16;;;;;;;;;;;16.90;58.30;;;;;;5078405;28;19904;-61
2022/05/27 00:11:41;;;;;;;;;;;17.00;58.40;;;;;;5076770;28;19905;-61
2022/05/27 00:14:07;;;;;;;;;;;17.00;58.40;;;;;;5108217;28;19912;-61
2022/05/27 00:16:32;;;;;;;;;;;17.00;58.40;;;;;;5082787;28;20360;-61
2022/05/27 00:18:58;;;;;;;;;;;16.90;58.40;;;;;;5091995;28;19908;-61
2022/05/27 00:21:24;;;;;;;;;;;17.00;58.50;;;;;;5083884;28;19911;-61
2022/05/27 00:23:50;;;;;;;;;;;17.00;58.50;;;;;;5083924;28;20049;-61
2022/05/27 00:26:15;;;;;;;;;;;16.90;58.50;;;;;;5074808;28;19964;-61
2022/05/27 00:28:41;;;;;;;;;;;17.00;58.50;;;;;;5074016;28;19905;-61
2022/05/27 00:31:06;;;;;;;;;;;16.90;58.60;;;;;;5096327;28;19908;-61
2022/05/27 00:33:33;;;;;;;;;;;16.90;58.50;;;;;;5092100;28;19962;-61
2022/05/27 00:35:58;;;;;;;;;;;17.00;58.70;;;;;;5079331;28;19916;-60
2022/05/27 00:38:24;;;;;;;;;;;16.90;58.70;;;;;;5082899;28;19958;-61
2022/05/27 00:40:52;;;;;;;;;;;16.90;58.60;;;;;;5073651;28;19911;-61
2022/05/27 00:43:19;;;;;;;;;;;16.90;58.70;;;;;;5080424;28;19909;-61
2022/05/27 00:45:48;;;;;;;;;;;16.90;58.70;;;;;;5077815;28;19914;-61
2022/05/27 00:48:15;;;;;;;;;;;16.90;58.80;;;;;;5100731;28;20339;-60
2022/05/27 00:50:42;;;;;;;;;;;16.90;58.80;;;;;;5096747;28;19951;-61
2022/05/27 00:53:10;;;;;;;;;;;16.90;58.80;;;;;;5096678;28;19912;-61
2022/05/27 00:55:43;;;;;;;;;;;16.80;58.80;;;;;;5092103;28;19956;-60
2022/05/27 00:58:12;;;;;;;;;;;16.80;59.00;;;;;;5093077;28;19937;-61
2022/05/27 01:00:38;;;;;;;;;;;16.80;59.00;;;;;;5093574;28;19979;-61
2022/05/27 01:03:06;;;;;;;;;;;16.80;59.10;;;;;;5093072;28;19914;-61
2022/05/27 01:05:31;;;;;;;;;;;16.80;59.10;;;;;;5092348;28;19938;-61
2022/05/27 01:08:01;;;;;;;;;;;16.80;59.10;;;;;;5080167;28;19948;-61
2022/05/27 01:10:26;;;;;;;;;;;16.80;59.10;;;;;;5073277;28;19965;-61
2022/05/27 01:12:58;;;;;;;;;;;16.70;59.10;;;;;;5079598;28;19998;-61
2022/05/27 01:15:23;;;;;;;;;;;16.80;59.30;;;;;;5091970;28;19908;-60
2022/05/27 01:17:52;;;;;;;;;;;16.70;59.30;;;;;;5087063;28;20453;-61
2022/05/27 01:20:36;;;;;;;;;;;16.70;59.30;;;;;;5091575;28;19904;-61
2022/05/27 01:23:20;;;;;;;;;;;16.70;59.40;;;;;;5086167;28;20466;-61
2022/05/27 01:25:46;;;;;;;;;;;16.70;59.50;;;;;;5085613;28;19920;-61
2022/05/27 01:28:30;;;;;;;;;;;16.70;59.70;;;;;;5072927;28;19916;-61
2022/05/27 01:31:00;;;;;;;;;;;16.70;59.50;;;;;;5079360;28;19990;-61
2022/05/27 01:33:31;;;;;;;;;;;16.70;59.70;;;;;;5093090;28;19908;-61
2022/05/27 01:35:57;;;;;;;;;;;16.70;59.70;;;;;;5079104;28;19916;-61
2022/05/27 01:38:31;;;;;;;;;;;16.70;59.70;;;;;;5103304;28;19929;-61
2022/05/27 01:40:57;;;;;;;;;;;16.70;59.70;;;;;;5086385;28;19919;-61
2022/05/27 01:43:22;;;;;;;;;;;16.80;59.70;;;;;;5095771;28;19904;-61
2022/05/27 01:45:48;;;;;;;;;;;16.80;59.90;;;;;;5089384;28;19949;-61
2022/05/27 01:48:17;;;;;;;;;;;16.80;59.90;;;;;;5091960;28;19908;-61
2022/05/27 01:50:47;;;;;;;;;;;16.80;59.80;;;;;;5092251;28;19904;-61
2022/05/27 01:53:13;;;;;;;;;;;16.80;59.80;;;;;;5086170;28;19911;-61
2022/05/27 01:55:58;;;;;;;;;;;16.80;59.80;;;;;;5091462;28;20311;-61
2022/05/27 01:58:27;;;;;;;;;;;16.90;59.80;;;;;;5085543;28;19908;-61
2022/05/27 02:00:53;;;;;;;;;;;16.90;59.80;;;;;;5081500;28;19911;-61
2022/05/27 02:03:24;;;;;;;;;;;16.90;59.80;;;;;;5084347;28;19904;-60
2022/05/27 02:05:50;;;;;;;;;;;16.90;59.80;;;;;;5079850;28;19908;-61
2022/05/27 02:08:18;;;;;;;;;;;16.90;59.80;;;;;;5092024;28;19915;-61
2022/05/27 02:10:49;;;;;;;;;;;16.90;59.80;;;;;;5082796;28;19904;-61
2022/05/27 02:13:16;;;;;;;;;;;17.00;59.90;;;;;;5084541;28;20267;-61
2022/05/27 02:15:43;;;;;;;;;;;17.00;59.90;;;;;;5089124;28;19918;-61
2022/05/27 02:18:12;;;;;;;;;;;17.00;59.90;;;;;;5094161;28;19911;-61
2022/05/27 02:20:40;;;;;;;;;;;17.00;60.00;;;;;;5092087;28;20077;-61
2022/05/27 02:23:11;;;;;;;;;;;17.00;60.00;;;;;;5091700;28;20572;-60
2022/05/27 02:25:39;;;;;;;;;;;17.00;59.90;;;;;;5083902;28;20382;-60
2022/05/27 02:28:13;;;;;;;;;;;17.00;59.90;;;;;;5084750;28;19908;-61
2022/05/27 02:30:40;;;;;;;;;;;17.10;60.00;;;;;;5093802;28;19930;-61
2022/05/27 02:35:53;;;;;;;;;;;17.10;60.00;;;;;;5077582;28;20011;-61
2022/05/27 02:38:18;;;;;;;;;;;17.10;60.00;;;;;;5092263;28;20275;-61
2022/05/27 02:40:53;;;;;;;;;;;17.10;60.00;;;;;;5073608;28;19904;-61
2022/05/27 02:43:18;;;;;;;;;;;17.10;60.10;;;;;;5073837;28;19950;-61
2022/05/27 02:45:47;;;;;;;;;;;17.10;60.00;;;;;;5092215;28;19904;-61
2022/05/27 02:48:15;;;;;;;;;;;17.10;60.20;;;;;;5090991;28;19911;-61
2022/05/27 02:50:43;;;;;;;;;;;17.10;60.10;;;;;;5073540;28;19908;-61
2022/05/27 02:53:21;;;;;;;;;;;17.20;60.20;;;;;;5079817;28;20319;-61
2022/05/27 02:55:50;;;;;;;;;;;17.20;60.20;;;;;;5078847;28;19908;-61
2022/05/27 02:58:16;;;;;;;;;;;17.20;60.20;;;;;;5080644;28;19911;-61
2022/05/27 03:00:43;;;;;;;;;;;17.30;60.20;;;;;;5092966;28;19969;-61
2022/05/27 03:03:08;;;;;;;;;;;17.40;60.30;;;;;;5077116;28;19930;-60
2022/05/27 03:05:54;;;;;;;;;;;17.40;60.20;;;;;;5079982;28;19908;-61
2022/05/27 03:08:22;;;;;;;;;;;17.50;60.20;;;;;;5041409;28;20292;-60
2022/05/27 03:10:51;;;;;;;;;;;17.50;60.10;;;;;;5090886;28;19912;-61
2022/05/27 03:13:25;;;;;;;;;;;17.60;60.10;;;;;;5075410;28;19943;-61
2022/05/27 03:16:00;;;;;;;;;;;17.70;60.10;;;;;;5075546;28;19912;-60
2022/05/27 03:18:28;;;;;;;;;;;17.80;60.20;;;;;;5091632;28;19915;-60
2022/05/27 03:21:08;;;;;;;;;;;17.90;60.00;;;;;;5076179;28;19904;-60
2022/05/27 03:23:45;;;;;;;;;;;17.90;59.90;;;;;;5083154;28;20344;-61
2022/05/27 03:26:19;;;;;;;;;;;18.00;60.00;;;;;;5085008;28;19923;-60
2022/05/27 03:28:52;;;;;;;;;;;18.10;59.90;;;;;;5106657;28;19907;-61
2022/05/27 03:31:23;;;;;;;;;;;18.20;60.10;;;;;;5097961;28;19926;-61
2022/05/27 03:33:49;;;;;;;;;;;18.30;60.40;;;;;;5098866;28;19908;-60
2022/05/27 03:36:14;;;;;;;;;;;18.60;60.70;;;;;;5092376;28;19904;-60
2022/05/27 03:38:43;;;;;;;;;;;18.90;60.40;;;;;;5089065;28;19904;-61
2022/05/27 03:41:12;;;;;;;;;;;19.10;61.20;;;;;;5091287;28;19908;-60
2022/05/27 03:43:38;;;;;;;;;;;19.50;60.90;;;;;;5094766;28;19908;-60
2022/05/27 03:46:04;;;;;;;;;;;20.10;61.30;;;;;;5094858;28;19934;-60
2022/05/27 03:48:31;;;;;;;;;;;21.00;61.20;;;;;;5095110;28;19904;-60
2022/05/27 03:50:58;;;;;;;;;;;21.90;60.30;;;;;;5094637;28;19908;-60
2022/05/27 03:54:03;;;;;;;;;;;23.00;59.40;;;;;;5090347;28;19979;-58
2022/05/27 03:56:09;;;;;;;;;;;24.00;58.20;;;;;;5075320;28;19908;-58
2022/05/27 03:58:35;;;;;;;;;;;25.20;57.00;;;;;;5079961;28;20265;-58
2022/05/27 04:01:00;;;;;;;;;;;26.10;55.90;;;;;;5077551;28;19983;-57
2022/05/27 04:03:26;;;;;;;;;;;26.80;54.90;;;;;;5089596;28;20378;-58
2022/05/27 04:05:51;;;;;;;;;;;27.60;54.30;;;;;;5076405;28;19943;-58
2022/05/27 04:08:17;;;;;;;;;;;28.30;53.70;;;;;;5094222;28;20002;-57
2022/05/27 04:10:42;;;;;;;;;;;29.10;52.40;;;;;;5094580;28;20319;-58
2022/05/27 04:13:08;;;;;;;;;;;29.50;51.50;;;;;;5092477;28;20017;-58
2022/05/27 04:15:33;;;;;;;;;;;29.80;51.00;;;;;;5085486;28;20260;-57
2022/05/27 04:17:59;;;;;;;;;;;30.00;50.50;;;;;;5092215;28;19908;-58
2022/05/27 04:20:25;;;;;;;;;;;30.20;49.80;;;;;;5084240;28;19915;-57
2022/05/27 04:22:54;;;;;;;;;;;30.00;48.60;;;;;;5075970;28;20314;-57
2022/05/27 04:25:20;;;;;;;;;;;29.60;48.70;;;;;;5073911;28;19912;-58
2022/05/27 04:27:45;;;;;;;;;;;29.00;48.70;;;;;;5074286;28;19931;-58
2022/05/27 04:30:11;;;;;;;;;;;28.50;48.90;;;;;;5088583;28;19904;-58
2022/05/27 04:32:36;;;;;;;;;;;27.80;49.00;;;;;;5091580;28;19908;-58
2022/05/27 04:35:02;;;;;;;;;;;27.30;49.80;;;;;;5098680;28;19908;-59
2022/05/27 04:37:28;;;;;;;;;;;27.10;50.70;;;;;;5094386;28;20596;-59
2022/05/27 04:39:53;;;;;;;;;;;27.30;51.30;;;;;;5090421;28;19911;-58
2022/05/27 04:42:19;;;;;;;;;;;28.00;51.30;;;;;;5093477;28;19916;-59
2022/05/27 04:44:44;;;;;;;;;;;28.70;50.80;;;;;;5092697;28;20494;-59
2022/05/27 04:47:11;;;;;;;;;;;29.40;50.10;;;;;;5087218;28;19919;-58
2022/05/27 04:49:55;;;;;;;;;;;30.10;49.90;;;;;;5092223;28;20282;-59
2022/05/27 04:52:22;;;;;;;;;;;30.80;49.20;;;;;;5083777;28;19911;-59
2022/05/27 04:54:48;;;;;;;;;;;31.30;48.30;;;;;;5085728;28;20356;-58
2022/05/27 04:57:24;;;;;;;;;;;31.30;47.10;;;;;;5084086;28;19918;-59
2022/05/27 04:59:50;;;;;;;;;;;30.90;46.90;;;;;;5093039;28;19908;-59
2022/05/27 05:02:16;;;;;;;;;;;30.20;47.00;;;;;;5091770;28;19914;-59
2022/05/27 05:04:42;;;;;;;;;;;29.70;47.60;;;;;;5082062;28;19908;-59
2022/05/27 05:07:08;;;;;;;;;;;29.40;47.70;;;;;;5085494;28;19908;-58
2022/05/27 05:09:34;;;;;;;;;;;29.20;48.20;;;;;;5087753;28;20355;-59
2022/05/27 05:12:00;;;;;;;;;;;29.40;48.60;;;;;;5091195;28;19957;-58
2022/05/27 05:14:25;;;;;;;;;;;29.80;48.70;;;;;;5092337;28;19907;-59
2022/05/27 05:16:52;;;;;;;;;;;30.20;48.20;;;;;;5088860;28;19950;-59
2022/05/27 05:19:17;;;;;;;;;;;30.60;47.60;;;;;;5086007;28;19912;-59
2022/05/27 05:21:43;;;;;;;;;;;30.90;46.50;;;;;;5086341;28;19962;-60
2022/05/27 05:24:08;;;;;;;;;;;30.90;46.40;;;;;;5100283;28;19915;-60
2022/05/27 05:26:34;;;;;;;;;;;30.60;45.80;;;;;;5091369;28;19923;-60
2022/05/27 05:28:59;;;;;;;;;;;30.10;45.90;;;;;;5089094;28;19956;-59
2022/05/27 05:31:25;;;;;;;;;;;29.50;46.00;;;;;;5091785;28;19908;-59
2022/05/27 05:33:51;;;;;;;;;;;28.80;46.70;;;;;;5077558;28;20367;-60
2022/05/27 05:36:16;;;;;;;;;;;28.10;47.10;;;;;;5107542;28;19915;-60
2022/05/27 05:38:42;;;;;;;;;;;27.40;47.70;;;;;;5092695;28;19908;-60
2022/05/27 05:41:07;;;;;;;;;;;26.70;48.20;;;;;;5089185;28;19911;-60
2022/05/27 05:43:33;;;;;;;;;;;26.20;48.80;;;;;;5090633;28;19919;-60
2022/05/27 05:45:59;;;;;;;;;;;25.80;49.20;;;;;;5090569;28;19908;-59
2022/05/27 05:48:24;;;;;;;;;;;25.40;49.70;;;;;;5086554;28;20843;-60
2022/05/27 05:50:50;;;;;;;;;;;25.10;49.90;;;;;;5092192;28;19914;-60
2022/05/27 05:53:18;;;;;;;;;;;24.80;50.20;;;;;;5090033;28;19974;-60
2022/05/27 05:55:43;;;;;;;;;;;24.60;50.40;;;;;;5089796;28;19958;-60
2022/05/27 05:58:10;;;;;;;;;;;24.30;50.70;;;;;;5081236;28;19916;-60
2022/05/27 06:00:35;;;;;;;;;;;24.10;51.10;;;;;;5073935;28;19972;-60
2022/05/27 06:03:01;;;;;;;;;;;24.00;51.30;;;;;;5074096;28;19919;-59
2022/05/27 06:05:26;;;;;;;;;;;23.90;51.70;;;;;;5083195;28;19916;-60
2022/05/27 06:07:52;;;;;;;;;;;23.80;52.00;;;;;;5085697;28;19908;-60
2022/05/27 06:10:19;;;;;;;;;;;23.60;52.00;;;;;;5087470;28;20593;-60
2022/05/27 06:12:45;;;;;;;;;;;23.60;52.00;;;;;;5083847;28;20009;-60
2022/05/27 06:15:11;;;;;;;;;;;23.40;52.10;;;;;;5075367;28;19920;-60
2022/05/27 06:17:37;;;;;;;;;;;23.40;52.40;;;;;;5077074;28;19943;-59
2022/05/27 06:20:03;;;;;;;;;;;23.30;52.40;;;;;;5082767;28;19984;-60
2022/05/27 06:22:29;;;;;;;;;;;23.20;52.50;;;;;;5080959;28;20399;-57
2022/05/27 06:24:54;;;;;;;;;;;23.10;52.30;;;;;;5066021;28;20010;-57
2022/05/27 06:27:20;;;;;;;;;;;23.10;52.40;;;;;;5088436;28;19919;-58
2022/05/27 06:35:14;;;;;;;;;;;23.00;52.10;;;;;;5086446;28;19923;-56
2022/05/27 06:37:39;;;;;;;;;;;23.00;52.10;;;;;;5084751;28;19916;-57
2022/05/27 06:40:06;;;;;;;;;;;23.00;52.00;;;;;;5082802;28;19915;-58
2022/05/27 06:42:31;;;;;;;;;;;23.00;51.90;;;;;;5091174;28;19914;-58
2022/05/27 06:44:57;;;;;;;;;;;23.00;51.70;;;;;;5087515;28;19912;-58
2022/05/27 06:47:22;;;;;;;;;;;23.00;52.00;;;;;;5080666;28;19911;-58
2022/05/27 06:49:48;;;;;;;;;;;22.90;51.80;;;;;;5080192;28;19933;-57
2022/05/27 06:52:15;;;;;;;;;;;23.00;51.70;;;;;;5083755;28;19916;-58
2022/05/27 06:54:41;;;;;;;;;;;22.90;51.50;;;;;;5081755;28;19959;-56
2022/05/27 06:57:07;;;;;;;;;;;22.90;51.70;;;;;;5081878;28;19961;-58
2022/05/27 06:59:33;;;;;;;;;;;22.90;51.40;;;;;;5082444;28;19912;-57
2022/05/27 07:01:59;;;;;;;;;;;22.90;51.40;;;;;;5079124;28;19938;-55
2022/05/27 07:04:24;;;;;;;;;;;22.90;51.50;;;;;;5083385;28;19959;-58
2022/05/27 07:06:51;;;;;;;;;;;23.00;51.30;;;;;;5081818;28;19908;-57
2022/05/27 07:09:17;;;;;;;;;;;23.00;51.50;;;;;;5085408;28;19912;-57
2022/05/27 07:11:44;;;;;;;;;;;23.00;51.60;;;;;;5081814;28;19985;-58
2022/05/27 07:14:10;;;;;;;;;;;23.00;51.20;;;;;;5087091;28;20320;-58
2022/05/27 07:16:36;;;;;;;;;;;23.00;50.80;;;;;;5084391;28;20056;-58
2022/05/27 07:19:01;;;;;;;;;;;23.00;50.80;;;;;;5085457;28;20020;-58
2022/05/27 07:21:27;;;;;;;;;;;23.00;50.80;;;;;;5079844;28;19927;-58
2022/05/27 07:23:53;;;;;;;;;;;23.00;50.90;;;;;;5081480;28;19908;-58
2022/05/27 07:26:20;;;;;;;;;;;23.00;50.90;;;;;;5077075;28;19950;-58
2022/05/27 07:28:45;;;;;;;;;;;23.00;50.50;;;;;;5076579;28;19916;-57
2022/05/27 07:31:11;;;;;;;;;;;23.00;50.30;;;;;;5082185;28;20425;-56
2022/05/27 07:33:36;;;;;;;;;;;23.00;50.50;;;;;;5081670;28;19911;-57
2022/05/27 07:36:02;;;;;;;;;;;23.00;50.60;;;;;;5081455;28;20037;-58
2022/05/27 07:38:27;;;;;;;;;;;23.00;50.50;;;;;;5083713;28;20387;-58
2022/05/27 07:40:53;;;;;;;;;;;23.00;50.70;;;;;;5085482;28;20032;-58
2022/05/27 07:43:19;;;;;;;;;;;23.00;50.50;;;;;;5080809;28;19912;-57
2022/05/27 07:45:45;;;;;;;;;;;23.00;50.50;;;;;;5079189;28;19919;-56
2022/05/27 07:48:11;;;;;;;;;;;22.90;50.50;;;;;;5081767;28;19912;-56
2022/05/27 07:50:37;;;;;;;;;;;22.90;50.60;;;;;;5080908;28;19908;-57
2022/05/27 07:53:03;;;;;;;;;;;22.90;50.70;;;;;;5081678;28;20386;-57
2022/05/27 07:55:29;;;;;;;;;;;22.90;50.60;;;;;;5079471;28;19919;-58
2022/05/27 07:57:55;;;;;;;;;;;22.90;50.60;;;;;;5072457;28;19938;-57
2022/05/27 08:00:28;;;;;;;;;;;22.90;50.50;;;;;;5075460;28;19919;-56
2022/05/27 08:02:54;;;;;;;;;;;22.90;50.60;;;;;;5074374;28;19939;-57
2022/05/27 08:05:21;;;;;;;;;;;22.90;50.70;;;;;;5076640;28;20677;-57
2022/05/27 08:07:47;;;;;;;;;;;23.00;50.60;;;;;;5078080;28;19927;-58
2022/05/27 08:10:13;;;;;;;;;;;23.00;50.50;;;;;;5078414;28;20356;-57
2022/05/27 08:12:40;;;;;;;;;;;23.00;50.20;;;;;;5076940;28;19911;-56
2022/05/27 08:15:07;;;;;;;;;;;23.00;50.20;;;;;;5075522;28;20043;-58
2022/05/27 08:17:33;;;;;;;;;;;23.00;50.30;;;;;;5079470;28;19920;-57
2022/05/27 08:19:58;;;;;;;;;;;23.00;50.20;;;;;;5077565;28;19908;-56
2022/05/27 08:22:25;;;;;;;;;;;23.00;50.40;;;;;;5072399;28;19962;-57
2022/05/27 08:24:50;;;;;;;;;;;23.00;50.40;;;;;;5075724;28;22727;-57
2022/05/27 08:27:16;;;;;;;;;;;23.00;50.70;;;;;;5075490;28;19926;-57
2022/05/27 08:29:41;;;;;;;;;;;23.00;50.60;;;;;;5074977;28;19919;-57
2022/05/27 08:32:07;;;;;;;;;;;22.90;50.20;;;;;;5069646;28;19912;-57
2022/05/27 08:40:07;;;;;;;;;;;22.80;50.20;;;;;;5073927;28;19923;-57
2022/05/27 08:42:39;;;;;;;;;;;22.80;50.50;;;;;;5077599;28;19916;-57
2022/05/27 08:45:19;;;;;;;;;;;22.70;50.70;;;;;;5076855;28;19962;-56
2022/05/27 08:47:49;;;;;;;;;;;22.70;50.70;;;;;;5072698;28;20006;-56
2022/05/27 08:50:23;;;;;;;;;;;22.80;50.50;;;;;;5076168;28;19914;-56
2022/05/27 08:52:53;;;;;;;;;;;22.80;50.60;;;;;;5077767;28;19938;-57
2022/05/27 09:00:48;;;;;;;;;;;22.90;50.30;;;;;;5071959;28;19958;-57
2022/05/27 09:03:14;;;;;;;;;;;23.00;50.30;;;;;;5072742;28;20002;-56
2022/05/27 09:05:49;;;;;;;;;;;22.90;50.20;;;;;;5074444;28;19912;-59
2022/05/27 09:08:15;;;;;;;;;;;23.00;50.30;;;;;;5074215;28;20031;-58
2022/05/27 09:10:50;;;;;;;;;;;22.90;50.40;;;;;;5077699;28;19908;-57
2022/05/27 09:13:25;;;;;;;;;;;23.00;50.50;;;;;;5072308;28;20336;-58
2022/05/27 09:16:10;;;;;;;;;;;23.00;50.60;;;;;;5066311;28;19920;-58
2022/05/27 09:18:39;;;;;;;;;;;23.00;50.10;;;;;;5065674;28;19916;-57
2022/05/27 09:21:40;;;;;;;;;;;23.00;50.10;;;;;;5073168;28;19919;-58
2022/05/27 09:24:08;;;;;;;;;;;23.10;50.20;;;;;;4992188;28;19918;-58
2022/05/27 09:26:34;;;;;;;;;;;23.00;50.20;;;;;;5058243;28;20405;-58
2022/05/27 09:29:11;;;;;;;;;;;23.10;50.10;;;;;;5070925;28;20002;-59
2022/05/27 09:31:42;;;;;;;;;;;23.10;50.20;;;;;;5072750;28;19923;-58
2022/05/27 09:34:09;;;;;;;;;;;23.20;50.00;;;;;;5072199;28;20295;-58
2022/05/27 09:36:40;;;;;;;;;;;23.20;49.90;;;;;;5073948;28;20351;-56
2022/05/27 09:39:10;;;;;;;;;;;23.20;49.80;;;;;;5077741;28;19947;-57
2022/05/27 09:41:52;;;;;;;;;;;23.20;49.80;;;;;;5070149;28;20275;-56
2022/05/27 09:44:26;;;;;;;;;;;23.30;49.70;;;;;;5074384;28;20837;-59
2022/05/27 09:46:52;;;;;;;;;;;23.20;49.80;;;;;;5074182;28;19927;-57
2022/05/27 09:49:18;;;;;;;;;;;23.20;49.80;;;;;;5071841;28;20398;-58
2022/05/27 09:51:43;;;;;;;;;;;23.20;50.00;;;;;;5072595;28;20009;-57
2022/05/27 09:54:27;;;;;;;;;;;23.20;50.10;;;;;;5074364;28;20330;-57
2022/05/27 09:57:02;;;;;;;;;;;23.30;50.30;;;;;;5068116;28;20038;-58
2022/05/27 09:59:35;;;;;;;;;;;23.30;50.00;;;;;;5067576;28;19958;-57
2022/05/27 10:02:20;;;;;;;;;;;23.40;49.90;;;;;;5073967;28;19922;-58
2022/05/27 10:04:57;;;;;;;;;;;23.50;49.80;;;;;;5074071;28;20928;-57
2022/05/27 10:07:27;;;;;;;;;;;23.50;49.80;;;;;;5071925;28;19916;-57
2022/05/27 10:09:54;;;;;;;;;;;23.50;49.70;;;;;;5073258;28;19948;-57
2022/05/27 10:12:30;;;;;;;;;;;23.60;49.60;;;;;;5063862;28;19923;-58
2022/05/27 10:14:55;;;;;;;;;;;23.60;49.60;;;;;;5069501;28;20278;-57
2022/05/27 10:17:35;;;;;;;;;;;23.60;49.60;;;;;;5070783;28;19916;-58
2022/05/27 10:20:17;;;;;;;;;;;23.60;49.60;;;;;;5079353;28;19933;-58
2022/05/27 10:22:56;;;;;;;;;;;23.50;49.60;;;;;;5076707;28;19916;-57
2022/05/27 10:25:28;;;;;;;;;;;23.50;49.50;;;;;;5059392;28;19973;-57
2022/05/27 10:27:54;;;;;;;;;;;23.50;49.50;;;;;;5082638;28;19943;-56
2022/05/27 10:30:19;;;;;;;;;;;23.50;49.50;;;;;;5074606;28;20089;-57
2022/05/27 10:32:45;;;;;;;;;;;23.40;49.50;;;;;;5073628;28;19920;-58
2022/05/27 10:35:20;;;;;;;;;;;23.40;49.60;;;;;;5071163;28;19920;-57
2022/05/27 10:37:46;;;;;;;;;;;23.30;49.50;;;;;;5077150;28;19916;-57
2022/05/27 10:40:34;;;;;;;;;;;23.30;49.50;;;;;;5082900;28;19960;-57
2022/05/27 10:43:03;;;;;;;;;;;23.20;49.60;;;;;;5072033;28;19916;-57
2022/05/27 10:45:34;;;;;;;;;;;23.20;49.70;;;;;;5079488;28;19919;-57
2022/05/27 10:48:09;;;;;;;;;;;23.10;49.80;;;;;;5075938;28;19958;-58
2022/05/27 10:50:46;;;;;;;;;;;23.10;50.00;;;;;;5075430;28;19912;-57
2022/05/27 10:53:23;;;;;;;;;;;23.10;50.00;;;;;;5072684;28;19912;-57
2022/05/27 10:56:12;;;;;;;;;;;23.10;50.10;;;;;;5072017;28;19916;-58
2022/05/27 11:04:48;;;;;;;;;;;23.10;50.10;;;;;;5076104;28;19957;-56
2022/05/27 11:07:14;;;;;;;;;;;23.10;50.10;;;;;;5068858;28;19920;-56
2022/05/27 11:09:47;;;;;;;;;;;23.00;50.10;;;;;;5056881;28;20832;-57
2022/05/27 11:12:22;;;;;;;;;;;23.00;50.30;;;;;;5068227;28;19996;-59
2022/05/27 11:15:12;;;;;;;;;;;23.00;50.30;;;;;;5079422;28;19943;-55
2022/05/27 11:17:38;;;;;;;;;;;23.00;50.60;;;;;;5079831;28;19915;-57
2022/05/27 11:20:42;;;;;;;;;;;23.10;50.60;;;;;;5070983;28;19922;-56
2022/05/27 11:23:07;;;;;;;;;;;23.10;50.60;;;;;;4988108;28;19917;-56
2022/05/27 11:25:36;;;;;;;;;;;23.10;50.60;;;;;;4993905;28;20360;-56
2022/05/27 11:28:10;;;;;;;;;;;23.20;50.60;;;;;;5024790;28;19985;-57
2022/05/27 11:31:14;;;;;;;;;;;23.20;50.50;;;;;;5074591;28;19915;-57
2022/05/27 11:33:44;;;;;;;;;;;23.30;50.50;;;;;;4976265;28;19914;-55
2022/05/27 11:36:12;;;;;;;;;;;23.40;50.50;;;;;;4968816;28;19968;-58
2022/05/27 11:38:43;;;;;;;;;;;23.40;51.20;;;;;;5023846;28;19942;-57
2022/05/27 11:41:12;;;;;;;;;;;23.50;50.50;;;;;;5070844;28;19916;-57
2022/05/27 11:44:01;;;;;;;;;;;23.60;50.60;;;;;;5070996;28;19924;-57
2022/05/27 11:46:36;;;;;;;;;;;23.60;50.50;;;;;;5073054;28;19976;-57
2022/05/27 11:49:01;;;;;;;;;;;23.70;50.50;;;;;;5074274;28;19912;-56
2022/05/27 11:51:39;;;;;;;;;;;23.80;50.50;;;;;;5075360;28;19919;-56
2022/05/27 11:54:23;;;;;;;;;;;23.80;50.10;;;;;;5065589;28;20245;-57
2022/05/27 11:56:48;;;;;;;;;;;23.80;50.00;;;;;;5072512;28;20504;-54
2022/05/27 11:59:25;;;;;;;;;;;23.80;50.00;;;;;;5070588;28;19912;-57
2022/05/27 12:01:51;;;;;;;;;;;23.90;50.20;;;;;;5072226;28;19999;-58
2022/05/27 12:04:30;;;;;;;;;;;23.90;50.30;;;;;;5076540;28;20003;-53
2022/05/27 12:07:25;;;;;;;;;;;24.00;50.20;;;;;;5077698;28;19916;-56
2022/05/27 12:09:54;;;;;;;;;;;24.00;50.20;;;;;;5073155;28;19923;-56
2022/05/27 12:12:25;;;;;;;;;;;24.00;50.10;;;;;;5069870;28;19922;-58
2022/05/27 12:15:03;;;;;;;;;;;24.10;50.00;;;;;;5074140;28;19941;-59
2022/05/27 12:17:41;;;;;;;;;;;24.10;49.90;;;;;;5064692;28;19912;-56
2022/05/27 12:20:08;;;;;;;;;;;24.10;49.80;;;;;;5070896;28;19915;-56
2022/05/27 12:22:35;;;;;;;;;;;24.10;49.80;;;;;;5071699;28;19951;-58
2022/05/27 12:25:00;;;;;;;;;;;24.00;49.60;;;;;;5077290;28;19990;-57
2022/05/27 12:27:27;;;;;;;;;;;24.00;49.60;;;;;;5070801;28;19916;-58
2022/05/27 12:29:53;;;;;;;;;;;23.80;49.50;;;;;;5062201;28;19977;-56
2022/05/27 12:32:21;;;;;;;;;;;23.80;49.60;;;;;;5064676;28;19923;-57
2022/05/27 12:34:51;;;;;;;;;;;23.70;49.70;;;;;;5069273;28;20316;-57
2022/05/27 12:37:17;;;;;;;;;;;23.70;49.90;;;;;;5069270;28;20505;-56
2022/05/27 12:39:43;;;;;;;;;;;23.60;50.10;;;;;;5072399;28;19964;-58
2022/05/27 12:42:24;;;;;;;;;;;23.60;49.90;;;;;;5066032;28;19915;-57
2022/05/27 12:44:50;;;;;;;;;;;23.60;49.80;;;;;;5071486;28;19950;-58
2022/05/27 12:47:19;;;;;;;;;;;23.60;49.90;;;;;;5076131;28;19915;-57
2022/05/27 12:49:49;;;;;;;;;;;23.60;50.10;;;;;;5074151;28;19916;-56
2022/05/27 12:52:30;;;;;;;;;;;23.60;50.10;;;;;;5074385;28;19934;-58
2022/05/27 12:54:59;;;;;;;;;;;23.60;50.10;;;;;;5074309;28;20269;-59
2022/05/27 13:03:30;;;;;;;;;;;23.70;50.20;;;;;;5070427;28;20686;-58
2022/05/27 13:06:07;;;;;;;;;;;23.80;50.20;;;;;;5075548;28;19924;-55
2022/05/27 13:08:46;;;;;;;;;;;23.80;50.10;;;;;;5072392;28;19943;-58
2022/05/27 13:11:23;;;;;;;;;;;23.80;50.20;;;;;;5072137;28;19919;-56
2022/05/27 13:13:49;;;;;;;;;;;23.90;50.20;;;;;;5076406;28;20030;-56
2022/05/27 13:16:44;;;;;;;;;;;23.80;50.10;;;;;;5071326;28;19924;-58
2022/05/27 13:19:31;;;;;;;;;;;23.90;50.10;;;;;;4966127;28;19956;-58
2022/05/27 13:21:58;;;;;;;;;;;23.90;50.20;;;;;;5069359;28;19957;-58
2022/05/27 13:24:53;;;;;;;;;;;24.00;50.00;;;;;;5076340;28;19912;-57
2022/05/27 13:27:24;;;;;;;;;;;24.00;50.00;;;;;;5053679;28;19924;-58
2022/05/27 13:29:57;;;;;;;;;;;24.10;50.10;;;;;;5071218;28;19912;-56
2022/05/27 13:32:24;;;;;;;;;;;24.10;50.10;;;;;;5071127;28;20298;-57
2022/05/27 13:34:58;;;;;;;;;;;24.10;49.80;;;;;;5070679;28;19920;-58
2022/05/27 13:37:39;;;;;;;;;;;24.10;49.70;;;;;;5073836;28;19978;-57
2022/05/27 13:40:09;;;;;;;;;;;24.10;49.80;;;;;;5066425;28;19916;-57
2022/05/27 13:42:37;;;;;;;;;;;24.10;49.70;;;;;;5072726;28;20406;-54
2022/05/27 13:45:11;;;;;;;;;;;24.10;49.70;;;;;;5068532;28;20697;-53
2022/05/27 13:47:40;;;;;;;;;;;24.10;49.70;;;;;;5077760;28;19912;-54
2022/05/27 13:50:22;;;;;;;;;;;24.10;49.50;;;;;;5058639;28;19920;-59
2022/05/27 13:52:47;;;;;;;;;;;24.10;49.70;;;;;;5072296;28;19912;-59
2022/05/27 13:55:14;;;;;;;;;;;24.10;49.70;;;;;;5051232;28;19955;-59
2022/05/27 13:57:46;;;;;;;;;;;24.10;49.70;;;;;;5080383;28;20437;-60
2022/05/27 14:00:16;;;;;;;;;;;24.10;49.70;;;;;;5076585;28;20352;-60
2022/05/27 14:02:46;;;;;;;;;;;24.10;49.70;;;;;;5077797;28;19911;-59
2022/05/27 14:05:23;;;;;;;;;;;24.20;49.70;;;;;;5078434;28;19916;-60
2022/05/27 14:07:51;;;;;;;;;;;24.20;49.50;;;;;;5077447;28;19922;-60
2022/05/27 14:10:20;;;;;;;;;;;24.10;49.60;;;;;;5072828;28;20375;-59
2022/05/27 14:12:47;;;;;;;;;;;24.20;49.50;;;;;;5067365;28;19927;-60
2022/05/27 14:15:18;;;;;;;;;;;24.10;49.60;;;;;;5072979;28;19923;-59
2022/05/27 14:17:45;;;;;;;;;;;24.10;49.60;;;;;;5078016;28;19955;-59
2022/05/27 14:20:12;;;;;;;;;;;24.10;49.50;;;;;;5066679;28;19943;-59
2022/05/27 14:22:48;;;;;;;;;;;24.10;49.60;;;;;;5072402;28;19954;-60
2022/05/27 14:25:17;;;;;;;;;;;24.10;49.50;;;;;;5071425;28;19927;-59
2022/05/27 14:27:49;;;;;;;;;;;24.00;49.50;;;;;;5069620;28;19920;-60
2022/05/27 14:30:19;;;;;;;;;;;24.00;49.50;;;;;;5073481;28;19912;-60
2022/05/27 14:32:45;;;;;;;;;;;24.00;49.40;;;;;;5077079;28;20020;-60
2022/05/27 14:35:12;;;;;;;;;;;24.00;49.60;;;;;;5083258;28;19916;-59
2022/05/27 14:37:46;;;;;;;;;;;24.00;49.60;;;;;;5081149;28;19931;-59
2022/05/27 14:40:13;;;;;;;;;;;24.00;49.60;;;;;;5081753;28;19912;-60
2022/05/27 14:42:39;;;;;;;;;;;24.00;49.60;;;;;;5079164;28;20581;-59
2022/05/27 14:45:11;;;;;;;;;;;24.00;49.60;;;;;;5080132;28;19947;-59
2022/05/27 14:47:37;;;;;;;;;;;24.00;49.50;;;;;;5075577;28;19923;-58
2022/05/27 14:50:16;;;;;;;;;;;24.00;49.50;;;;;;5077179;28;19961;-60
2022/05/27 14:52:43;;;;;;;;;;;24.00;49.50;;;;;;5077366;28;19951;-60
2022/05/27 14:55:15;;;;;;;;;;;24.00;49.40;;;;;;5079720;28;19926;-59
2022/05/27 14:57:48;;;;;;;;;;;24.10;49.40;;;;;;5086982;28;19963;-59
2022/05/27 15:00:20;;;;;;;;;;;24.10;49.40;;;;;;5080049;28;19916;-59
2022/05/27 15:02:45;;;;;;;;;;;24.00;49.30;;;;;;5084226;28;19916;-59